sensor_id;sensor_type;location;lat;lon;timestamp;P1;durP1;ratioP1;P2;durP2;ratioP2
68225;SDS011;55045;49.410;11.030;2023-03-17T00:01:16;4.75;;;3.30;;
68225;SDS011;55045;49.410;11.030;2023-03-17T00:04:21;5.65;;;3.38;;
68225;SDS011;55045;49.410;11.030;2023-03-17T00:07:27;3.50;;;2.90;;
68225;SDS011;55045;49.410;11.030;2023-03-17T00:10:30;4.40;;;2.97;;
68225;SDS011;55045;49.410;11.030;2023-03-17T00:13:34;6.15;;;3.50;;
68225;SDS011;55045;49.410;11.030;2023-03-17T00:16:37;4.15;;;2.58;;
68225;SDS011;55045;49.410;11.030;2023-03-17T00:19:43;4.50;;;2.60;;
68225;SDS011;55045;49.410;11.030;2023-03-17T00:22:47;3.58;;;2.60;;
68225;SDS011;55045;49.410;11.030;2023-03-17T00:25:51;3.70;;;2.60;;
68225;SDS011;55045;49.410;11.030;2023-03-17T00:28:55;5.68;;;3.40;;
68225;SDS011;55045;49.410;11.030;2023-03-17T00:31:58;4.32;;;2.55;;
68225;SDS011;55045;49.410;11.030;2023-03-17T00:35:01;4.80;;;2.42;;
68225;SDS011;55045;49.410;11.030;2023-03-17T00:38:09;3.47;;;2.63;;
68225;SDS011;55045;49.410;11.030;2023-03-17T00:41:17;4.60;;;3.00;;
68225;SDS011;55045;49.410;11.030;2023-03-17T00:44:23;6.03;;;2.47;;
68225;SDS011;55045;49.410;11.030;2023-03-17T00:47:26;3.45;;;2.20;;
68225;SDS011;55045;49.410;11.030;2023-03-17T00:50:29;2.88;;;2.47;;
68225;SDS011;55045;49.410;11.030;2023-03-17T00:53:37;3.72;;;2.38;;
68225;SDS011;55045;49.410;11.030;2023-03-17T00:56:41;4.63;;;2.75;;
68225;SDS011;55045;49.410;11.030;2023-03-17T00:59:45;5.38;;;2.50;;
68225;SDS011;55045;49.410;11.030;2023-03-17T01:02:49;3.13;;;2.33;;
68225;SDS011;55045;49.410;11.030;2023-03-17T01:05:54;3.05;;;2.20;;
68225;SDS011;55045;49.410;11.030;2023-03-17T01:09:00;5.65;;;2.63;;
68225;SDS011;55045;49.410;11.030;2023-03-17T01:12:05;4.25;;;2.30;;
68225;SDS011;55045;49.410;11.030;2023-03-17T01:15:09;8.25;;;2.30;;
68225;SDS011;55045;49.410;11.030;2023-03-17T01:18:14;4.45;;;2.28;;
68225;SDS011;55045;49.410;11.030;2023-03-17T01:21:19;3.80;;;2.10;;
68225;SDS011;55045;49.410;11.030;2023-03-17T01:24:24;3.80;;;2.13;;
68225;SDS011;55045;49.410;11.030;2023-03-17T01:27:32;2.08;;;1.88;;
68225;SDS011;55045;49.410;11.030;2023-03-17T01:30:38;3.13;;;2.30;;
68225;SDS011;55045;49.410;11.030;2023-03-17T01:33:42;2.65;;;2.00;;
68225;SDS011;55045;49.410;11.030;2023-03-17T01:36:45;2.72;;;1.77;;
68225;SDS011;55045;49.410;11.030;2023-03-17T01:39:50;4.13;;;2.25;;
68225;SDS011;55045;49.410;11.030;2023-03-17T01:42:58;3.03;;;2.08;;
68225;SDS011;55045;49.410;11.030;2023-03-17T01:49:28;2.97;;;2.00;;
68225;SDS011;55045;49.410;11.030;2023-03-17T01:55:41;4.97;;;2.30;;
68225;SDS011;55045;49.410;11.030;2023-03-17T01:58:48;4.75;;;2.25;;
68225;SDS011;55045;49.410;11.030;2023-03-17T02:05:01;3.58;;;2.00;;
68225;SDS011;55045;49.410;11.030;2023-03-17T02:08:07;3.53;;;2.05;;
68225;SDS011;55045;49.410;11.030;2023-03-17T02:11:14;3.17;;;2.30;;
68225;SDS011;55045;49.410;11.030;2023-03-17T02:14:18;4.28;;;2.55;;
68225;SDS011;55045;49.410;11.030;2023-03-17T02:17:22;2.92;;;2.10;;
68225;SDS011;55045;49.410;11.030;2023-03-17T02:24:14;5.30;;;2.42;;
68225;SDS011;55045;49.410;11.030;2023-03-17T02:27:23;2.92;;;2.35;;
68225;SDS011;55045;49.410;11.030;2023-03-17T02:30:31;3.00;;;2.35;;
68225;SDS011;55045;49.410;11.030;2023-03-17T02:33:37;3.10;;;2.50;;
68225;SDS011;55045;49.410;11.030;2023-03-17T02:36:40;4.65;;;2.58;;
68225;SDS011;55045;49.410;11.030;2023-03-17T02:39:45;5.00;;;2.55;;
68225;SDS011;55045;49.410;11.030;2023-03-17T02:42:49;3.75;;;2.28;;
68225;SDS011;55045;49.410;11.030;2023-03-17T02:45:53;3.65;;;2.40;;
68225;SDS011;55045;49.410;11.030;2023-03-17T02:48:56;4.38;;;2.83;;
68225;SDS011;55045;49.410;11.030;2023-03-17T02:51:59;3.72;;;2.83;;
68225;SDS011;55045;49.410;11.030;2023-03-17T02:55:05;5.97;;;2.50;;
68225;SDS011;55045;49.410;11.030;2023-03-17T02:58:09;6.22;;;2.45;;
68225;SDS011;55045;49.410;11.030;2023-03-17T03:01:12;6.78;;;3.00;;
68225;SDS011;55045;49.410;11.030;2023-03-17T03:04:16;5.82;;;2.60;;
68225;SDS011;55045;49.410;11.030;2023-03-17T03:07:20;2.47;;;2.15;;
68225;SDS011;55045;49.410;11.030;2023-03-17T03:10:25;2.58;;;2.03;;
68225;SDS011;55045;49.410;11.030;2023-03-17T03:13:29;4.45;;;2.20;;
68225;SDS011;55045;49.410;11.030;2023-03-17T03:16:33;4.00;;;2.10;;
68225;SDS011;55045;49.410;11.030;2023-03-17T03:19:36;5.13;;;2.30;;
68225;SDS011;55045;49.410;11.030;2023-03-17T03:22:40;4.55;;;2.03;;
68225;SDS011;55045;49.410;11.030;2023-03-17T03:25:44;3.58;;;2.30;;
68225;SDS011;55045;49.410;11.030;2023-03-17T03:28:48;5.40;;;2.40;;
68225;SDS011;55045;49.410;11.030;2023-03-17T03:31:51;5.22;;;2.60;;
68225;SDS011;55045;49.410;11.030;2023-03-17T03:34:54;5.28;;;3.28;;
68225;SDS011;55045;49.410;11.030;2023-03-17T03:37:58;6.22;;;2.80;;
68225;SDS011;55045;49.410;11.030;2023-03-17T03:41:03;4.47;;;2.75;;
68225;SDS011;55045;49.410;11.030;2023-03-17T03:44:07;5.60;;;2.50;;
68225;SDS011;55045;49.410;11.030;2023-03-17T03:47:10;4.43;;;2.38;;
68225;SDS011;55045;49.410;11.030;2023-03-17T03:50:13;3.85;;;2.60;;
68225;SDS011;55045;49.410;11.030;2023-03-17T03:53:17;4.40;;;3.28;;
68225;SDS011;55045;49.410;11.030;2023-03-17T03:56:22;7.40;;;2.65;;
68225;SDS011;55045;49.410;11.030;2023-03-17T03:59:26;6.82;;;3.03;;
68225;SDS011;55045;49.410;11.030;2023-03-17T04:02:30;4.28;;;2.30;;
68225;SDS011;55045;49.410;11.030;2023-03-17T04:05:33;6.88;;;3.30;;
68225;SDS011;55045;49.410;11.030;2023-03-17T04:08:36;5.43;;;3.05;;
68225;SDS011;55045;49.410;11.030;2023-03-17T04:11:41;5.25;;;2.80;;
68225;SDS011;55045;49.410;11.030;2023-03-17T04:14:44;4.00;;;2.75;;
68225;SDS011;55045;49.410;11.030;2023-03-17T04:17:47;5.40;;;2.90;;
68225;SDS011;55045;49.410;11.030;2023-03-17T04:20:51;5.35;;;2.42;;
68225;SDS011;55045;49.410;11.030;2023-03-17T04:23:54;3.15;;;2.60;;
68225;SDS011;55045;49.410;11.030;2023-03-17T04:26:58;5.65;;;3.05;;
68225;SDS011;55045;49.410;11.030;2023-03-17T04:30:02;5.00;;;2.80;;
68225;SDS011;55045;49.410;11.030;2023-03-17T04:34:15;3.38;;;2.58;;
68225;SDS011;55045;49.410;11.030;2023-03-17T04:37:19;4.32;;;3.08;;
68225;SDS011;55045;49.410;11.030;2023-03-17T04:40:23;4.65;;;3.20;;
68225;SDS011;55045;49.410;11.030;2023-03-17T04:43:26;6.95;;;3.38;;
68225;SDS011;55045;49.410;11.030;2023-03-17T04:46:29;6.13;;;2.80;;
68225;SDS011;55045;49.410;11.030;2023-03-17T04:49:34;4.88;;;2.85;;
68225;SDS011;55045;49.410;11.030;2023-03-17T04:52:37;7.35;;;3.40;;
68225;SDS011;55045;49.410;11.030;2023-03-17T04:55:41;8.02;;;3.97;;
68225;SDS011;55045;49.410;11.030;2023-03-17T04:58:44;5.30;;;3.40;;
68225;SDS011;55045;49.410;11.030;2023-03-17T05:01:47;10.55;;;3.60;;
68225;SDS011;55045;49.410;11.030;2023-03-17T05:04:52;6.32;;;3.40;;
68225;SDS011;55045;49.410;11.030;2023-03-17T05:07:55;4.90;;;3.25;;
68225;SDS011;55045;49.410;11.030;2023-03-17T05:10:58;4.82;;;2.70;;
68225;SDS011;55045;49.410;11.030;2023-03-17T05:14:02;7.07;;;2.88;;
68225;SDS011;55045;49.410;11.030;2023-03-17T05:17:05;4.40;;;2.97;;
68225;SDS011;55045;49.410;11.030;2023-03-17T05:20:11;3.88;;;2.97;;
68225;SDS011;55045;49.410;11.030;2023-03-17T05:23:15;5.75;;;3.42;;
68225;SDS011;55045;49.410;11.030;2023-03-17T05:26:18;3.60;;;2.40;;
68225;SDS011;55045;49.410;11.030;2023-03-17T05:29:21;5.63;;;2.90;;
68225;SDS011;55045;49.410;11.030;2023-03-17T05:32:25;6.40;;;3.10;;
68225;SDS011;55045;49.410;11.030;2023-03-17T05:35:29;6.60;;;2.92;;
68225;SDS011;55045;49.410;11.030;2023-03-17T05:38:32;5.03;;;3.10;;
68225;SDS011;55045;49.410;11.030;2023-03-17T05:41:36;4.07;;;2.53;;
68225;SDS011;55045;49.410;11.030;2023-03-17T05:44:39;4.75;;;2.40;;
68225;SDS011;55045;49.410;11.030;2023-03-17T05:47:42;4.07;;;2.78;;
68225;SDS011;55045;49.410;11.030;2023-03-17T05:50:48;3.97;;;2.67;;
68225;SDS011;55045;49.410;11.030;2023-03-17T05:53:51;9.77;;;3.30;;
68225;SDS011;55045;49.410;11.030;2023-03-17T05:56:55;6.43;;;2.88;;
68225;SDS011;55045;49.410;11.030;2023-03-17T05:59:58;6.55;;;3.10;;
68225;SDS011;55045;49.410;11.030;2023-03-17T06:03:01;6.50;;;3.53;;
68225;SDS011;55045;49.410;11.030;2023-03-17T06:06:06;6.22;;;2.85;;
68225;SDS011;55045;49.410;11.030;2023-03-17T06:09:09;6.45;;;3.08;;
68225;SDS011;55045;49.410;11.030;2023-03-17T06:12:13;6.22;;;3.15;;
68225;SDS011;55045;49.410;11.030;2023-03-17T06:15:16;6.70;;;3.15;;
68225;SDS011;55045;49.410;11.030;2023-03-17T06:18:20;7.47;;;3.15;;
68225;SDS011;55045;49.410;11.030;2023-03-17T06:21:24;7.35;;;3.35;;
68225;SDS011;55045;49.410;11.030;2023-03-17T06:24:27;6.65;;;3.50;;
68225;SDS011;55045;49.410;11.030;2023-03-17T06:27:31;7.43;;;3.15;;
68225;SDS011;55045;49.410;11.030;2023-03-17T06:30:34;8.48;;;3.33;;
68225;SDS011;55045;49.410;11.030;2023-03-17T06:33:41;5.35;;;2.80;;
68225;SDS011;55045;49.410;11.030;2023-03-17T06:36:46;8.32;;;3.00;;
68225;SDS011;55045;49.410;11.030;2023-03-17T06:39:50;4.65;;;2.97;;
68225;SDS011;55045;49.410;11.030;2023-03-17T06:42:53;7.70;;;3.03;;
68225;SDS011;55045;49.410;11.030;2023-03-17T06:45:56;6.72;;;2.67;;
68225;SDS011;55045;49.410;11.030;2023-03-17T06:48:59;5.78;;;3.00;;
68225;SDS011;55045;49.410;11.030;2023-03-17T06:52:05;9.98;;;3.13;;
68225;SDS011;55045;49.410;11.030;2023-03-17T06:55:10;9.95;;;3.70;;
68225;SDS011;55045;49.410;11.030;2023-03-17T06:58:13;5.80;;;3.88;;
68225;SDS011;55045;49.410;11.030;2023-03-17T07:01:16;7.50;;;3.30;;
68225;SDS011;55045;49.410;11.030;2023-03-17T07:04:19;7.05;;;3.88;;
68225;SDS011;55045;49.410;11.030;2023-03-17T07:07:24;9.63;;;3.47;;
68225;SDS011;55045;49.410;11.030;2023-03-17T07:10:28;6.90;;;2.92;;
68225;SDS011;55045;49.410;11.030;2023-03-17T07:13:32;7.85;;;2.60;;
68225;SDS011;55045;49.410;11.030;2023-03-17T07:16:38;5.45;;;3.03;;
68225;SDS011;55045;49.410;11.030;2023-03-17T07:19:41;6.38;;;3.17;;
68225;SDS011;55045;49.410;11.030;2023-03-17T07:22:45;5.88;;;2.92;;
68225;SDS011;55045;49.410;11.030;2023-03-17T07:25:49;5.85;;;2.67;;
68225;SDS011;55045;49.410;11.030;2023-03-17T07:28:53;4.20;;;2.47;;
68225;SDS011;55045;49.410;11.030;2023-03-17T07:31:56;4.80;;;2.78;;
68225;SDS011;55045;49.410;11.030;2023-03-17T07:34:59;6.47;;;3.00;;
68225;SDS011;55045;49.410;11.030;2023-03-17T07:38:04;5.82;;;3.03;;
68225;SDS011;55045;49.410;11.030;2023-03-17T07:41:07;3.95;;;2.55;;
68225;SDS011;55045;49.410;11.030;2023-03-17T07:44:11;3.45;;;2.50;;
68225;SDS011;55045;49.410;11.030;2023-03-17T07:47:15;4.28;;;2.40;;
68225;SDS011;55045;49.410;11.030;2023-03-17T07:50:18;6.75;;;2.75;;
68225;SDS011;55045;49.410;11.030;2023-03-17T07:53:25;3.92;;;2.78;;
68225;SDS011;55045;49.410;11.030;2023-03-17T07:56:28;3.35;;;2.40;;
68225;SDS011;55045;49.410;11.030;2023-03-17T07:59:32;4.80;;;2.38;;
68225;SDS011;55045;49.410;11.030;2023-03-17T08:02:35;5.35;;;2.67;;
68225;SDS011;55045;49.410;11.030;2023-03-17T08:05:39;4.35;;;2.38;;
68225;SDS011;55045;49.410;11.030;2023-03-17T08:08:43;4.03;;;2.15;;
68225;SDS011;55045;49.410;11.030;2023-03-17T08:11:47;4.47;;;2.50;;
68225;SDS011;55045;49.410;11.030;2023-03-17T08:14:51;2.35;;;2.10;;
68225;SDS011;55045;49.410;11.030;2023-03-17T08:17:56;2.33;;;2.00;;
68225;SDS011;55045;49.410;11.030;2023-03-17T08:20:59;5.72;;;2.50;;
68225;SDS011;55045;49.410;11.030;2023-03-17T08:24:04;5.63;;;3.25;;
68225;SDS011;55045;49.410;11.030;2023-03-17T08:27:08;5.15;;;2.20;;
68225;SDS011;55045;49.410;11.030;2023-03-17T08:30:11;3.13;;;2.15;;
68225;SDS011;55045;49.410;11.030;2023-03-17T08:33:15;3.70;;;1.98;;
68225;SDS011;55045;49.410;11.030;2023-03-17T08:36:18;3.60;;;2.10;;
68225;SDS011;55045;49.410;11.030;2023-03-17T08:39:24;3.78;;;2.20;;
68225;SDS011;55045;49.410;11.030;2023-03-17T08:42:27;6.28;;;2.15;;
68225;SDS011;55045;49.410;11.030;2023-03-17T08:45:30;3.70;;;2.03;;
68225;SDS011;55045;49.410;11.030;2023-03-17T08:48:34;1.83;;;1.50;;
68225;SDS011;55045;49.410;11.030;2023-03-17T08:51:38;3.83;;;2.10;;
68225;SDS011;55045;49.410;11.030;2023-03-17T08:54:43;2.95;;;1.80;;
68225;SDS011;55045;49.410;11.030;2023-03-17T08:57:47;4.25;;;1.73;;
68225;SDS011;55045;49.410;11.030;2023-03-17T09:00:51;5.65;;;1.70;;
68225;SDS011;55045;49.410;11.030;2023-03-17T09:03:55;3.17;;;2.03;;
68225;SDS011;55045;49.410;11.030;2023-03-17T09:06:58;3.15;;;1.90;;
68225;SDS011;55045;49.410;11.030;2023-03-17T09:10:07;3.35;;;2.03;;
68225;SDS011;55045;49.410;11.030;2023-03-17T09:13:11;3.35;;;1.73;;
68225;SDS011;55045;49.410;11.030;2023-03-17T09:16:15;4.10;;;1.92;;
68225;SDS011;55045;49.410;11.030;2023-03-17T09:19:19;5.00;;;2.25;;
68225;SDS011;55045;49.410;11.030;2023-03-17T09:22:22;4.22;;;1.90;;
68225;SDS011;55045;49.410;11.030;2023-03-17T09:25:27;2.47;;;1.73;;
68225;SDS011;55045;49.410;11.030;2023-03-17T09:28:30;2.38;;;1.70;;
68225;SDS011;55045;49.410;11.030;2023-03-17T09:31:34;2.67;;;2.20;;
68225;SDS011;55045;49.410;11.030;2023-03-17T09:34:37;2.10;;;1.90;;
68225;SDS011;55045;49.410;11.030;2023-03-17T09:37:41;3.72;;;1.77;;
68225;SDS011;55045;49.410;11.030;2023-03-17T09:40:47;2.45;;;1.70;;
68225;SDS011;55045;49.410;11.030;2023-03-17T09:43:55;3.00;;;1.63;;
68225;SDS011;55045;49.410;11.030;2023-03-17T09:47:10;3.10;;;1.50;;
68225;SDS011;55045;49.410;11.030;2023-03-17T09:50:30;2.17;;;1.73;;
68225;SDS011;55045;49.410;11.030;2023-03-17T09:53:39;2.75;;;1.45;;
68225;SDS011;55045;49.410;11.030;2023-03-17T09:56:53;4.53;;;1.50;;
68225;SDS011;55045;49.410;11.030;2023-03-17T10:00:03;2.88;;;1.70;;
68225;SDS011;55045;49.410;11.030;2023-03-17T10:03:09;2.50;;;1.60;;
68225;SDS011;55045;49.410;11.030;2023-03-17T10:06:30;3.20;;;1.65;;
68225;SDS011;55045;49.410;11.030;2023-03-17T10:09:37;2.40;;;1.65;;
68225;SDS011;55045;49.410;11.030;2023-03-17T10:12:50;2.10;;;1.50;;
68225;SDS011;55045;49.410;11.030;2023-03-17T10:15:59;2.95;;;1.70;;
68225;SDS011;55045;49.410;11.030;2023-03-17T10:19:07;2.05;;;1.65;;
68225;SDS011;55045;49.410;11.030;2023-03-17T10:22:20;1.98;;;1.50;;
68225;SDS011;55045;49.410;11.030;2023-03-17T10:25:30;2.65;;;1.50;;
68225;SDS011;55045;49.410;11.030;2023-03-17T10:28:36;4.82;;;1.60;;
68225;SDS011;55045;49.410;11.030;2023-03-17T10:34:15;2.97;;;1.90;;
68225;SDS011;55045;49.410;11.030;2023-03-17T10:37:21;3.50;;;1.60;;
68225;SDS011;55045;49.410;11.030;2023-03-17T10:40:28;1.92;;;1.40;;
68225;SDS011;55045;49.410;11.030;2023-03-17T10:43:34;3.92;;;1.45;;
68225;SDS011;55045;49.410;11.030;2023-03-17T10:46:41;2.10;;;1.45;;
68225;SDS011;55045;49.410;11.030;2023-03-17T10:49:57;2.38;;;1.52;;
68225;SDS011;55045;49.410;11.030;2023-03-17T10:53:04;6.65;;;1.60;;
68225;SDS011;55045;49.410;11.030;2023-03-17T10:56:13;2.05;;;1.33;;
68225;SDS011;55045;49.410;11.030;2023-03-17T10:59:24;2.00;;;1.40;;
68225;SDS011;55045;49.410;11.030;2023-03-17T11:02:35;3.20;;;1.40;;
68225;SDS011;55045;49.410;11.030;2023-03-17T11:05:54;2.17;;;1.50;;
68225;SDS011;55045;49.410;11.030;2023-03-17T11:09:04;3.75;;;1.58;;
68225;SDS011;55045;49.410;11.030;2023-03-17T11:12:18;2.08;;;1.60;;
68225;SDS011;55045;49.410;11.030;2023-03-17T11:15:27;1.98;;;1.73;;
68225;SDS011;55045;49.410;11.030;2023-03-17T11:18:35;3.30;;;1.63;;
68225;SDS011;55045;49.410;11.030;2023-03-17T11:21:44;2.80;;;1.25;;
68225;SDS011;55045;49.410;11.030;2023-03-17T11:24:57;3.40;;;1.13;;
68225;SDS011;55045;49.410;11.030;2023-03-17T11:28:09;3.92;;;1.33;;
68225;SDS011;55045;49.410;11.030;2023-03-17T11:31:23;1.88;;;1.30;;
68225;SDS011;55045;49.410;11.030;2023-03-17T11:34:42;2.95;;;1.67;;
68225;SDS011;55045;49.410;11.030;2023-03-17T11:38:01;3.42;;;1.48;;
68225;SDS011;55045;49.410;11.030;2023-03-17T11:41:24;3.10;;;1.20;;
68225;SDS011;55045;49.410;11.030;2023-03-17T11:44:39;1.73;;;1.25;;
68225;SDS011;55045;49.410;11.030;2023-03-17T11:48:02;2.63;;;1.55;;
68225;SDS011;55045;49.410;11.030;2023-03-17T11:51:14;3.70;;;1.40;;
68225;SDS011;55045;49.410;11.030;2023-03-17T11:54:27;1.63;;;1.30;;
68225;SDS011;55045;49.410;11.030;2023-03-17T11:57:43;3.37;;;1.40;;
68225;SDS011;55045;49.410;11.030;2023-03-17T12:00:50;2.00;;;1.10;;
68225;SDS011;55045;49.410;11.030;2023-03-17T12:04:02;3.70;;;1.10;;
68225;SDS011;55045;49.410;11.030;2023-03-17T12:07:15;1.98;;;1.13;;
68225;SDS011;55045;49.410;11.030;2023-03-17T12:10:25;1.67;;;1.25;;
68225;SDS011;55045;49.410;11.030;2023-03-17T12:13:36;1.98;;;1.20;;
68225;SDS011;55045;49.410;11.030;2023-03-17T12:16:44;1.35;;;1.17;;
68225;SDS011;55045;49.410;11.030;2023-03-17T12:19:56;2.03;;;1.13;;
68225;SDS011;55045;49.410;11.030;2023-03-17T12:23:09;2.85;;;1.23;;
68225;SDS011;55045;49.410;11.030;2023-03-17T12:26:22;1.23;;;0.80;;
68225;SDS011;55045;49.410;11.030;2023-03-17T12:29:38;3.30;;;1.60;;
68225;SDS011;55045;49.410;11.030;2023-03-17T12:32:51;2.30;;;1.10;;
68225;SDS011;55045;49.410;11.030;2023-03-17T12:36:01;3.47;;;1.25;;
68225;SDS011;55045;49.410;11.030;2023-03-17T12:39:07;2.25;;;1.02;;
68225;SDS011;55045;49.410;11.030;2023-03-17T12:42:19;2.08;;;0.95;;
68225;SDS011;55045;49.410;11.030;2023-03-17T12:49:16;1.63;;;1.17;;
68225;SDS011;55045;49.410;11.030;2023-03-17T12:52:56;1.55;;;1.20;;
68225;SDS011;55045;49.410;11.030;2023-03-17T12:56:15;2.13;;;1.00;;
68225;SDS011;55045;49.410;11.030;2023-03-17T12:59:23;1.95;;;1.23;;
68225;SDS011;55045;49.410;11.030;2023-03-17T13:02:31;1.20;;;1.10;;
68225;SDS011;55045;49.410;11.030;2023-03-17T13:05:42;2.30;;;0.98;;
68225;SDS011;55045;49.410;11.030;2023-03-17T13:08:49;1.58;;;1.20;;
68225;SDS011;55045;49.410;11.030;2023-03-17T13:11:54;2.47;;;1.20;;
68225;SDS011;55045;49.410;11.030;2023-03-17T13:14:59;1.40;;;1.08;;
68225;SDS011;55045;49.410;11.030;2023-03-17T13:18:24;1.65;;;1.00;;
68225;SDS011;55045;49.410;11.030;2023-03-17T13:21:50;1.00;;;0.90;;
68225;SDS011;55045;49.410;11.030;2023-03-17T13:25:12;2.63;;;1.40;;
68225;SDS011;55045;49.410;11.030;2023-03-17T13:31:33;1.23;;;1.00;;
68225;SDS011;55045;49.410;11.030;2023-03-17T13:34:43;3.22;;;1.00;;
68225;SDS011;55045;49.410;11.030;2023-03-17T13:37:55;2.90;;;1.15;;
68225;SDS011;55045;49.410;11.030;2023-03-17T13:41:17;1.42;;;1.05;;
68225;SDS011;55045;49.410;11.030;2023-03-17T13:44:37;2.85;;;1.10;;
68225;SDS011;55045;49.410;11.030;2023-03-17T13:47:54;1.20;;;1.08;;
68225;SDS011;55045;49.410;11.030;2023-03-17T13:51:30;2.40;;;1.30;;
68225;SDS011;55045;49.410;11.030;2023-03-17T13:54:39;2.20;;;1.00;;
68225;SDS011;55045;49.410;11.030;2023-03-17T13:57:52;2.08;;;0.93;;
68225;SDS011;55045;49.410;11.030;2023-03-17T14:00:59;1.05;;;0.95;;
68225;SDS011;55045;49.410;11.030;2023-03-17T14:04:11;1.42;;;1.02;;
68225;SDS011;55045;49.410;11.030;2023-03-17T14:07:21;1.92;;;1.10;;
68225;SDS011;55045;49.410;11.030;2023-03-17T14:10:28;3.58;;;1.10;;
68225;SDS011;55045;49.410;11.030;2023-03-17T14:13:35;1.30;;;1.20;;
68225;SDS011;55045;49.410;11.030;2023-03-17T14:16:44;1.35;;;0.93;;
68225;SDS011;55045;49.410;11.030;2023-03-17T14:20:03;4.93;;;1.20;;
68225;SDS011;55045;49.410;11.030;2023-03-17T14:23:09;1.48;;;1.00;;
68225;SDS011;55045;49.410;11.030;2023-03-17T14:26:13;4.82;;;1.00;;
68225;SDS011;55045;49.410;11.030;2023-03-17T14:29:17;2.20;;;1.00;;
68225;SDS011;55045;49.410;11.030;2023-03-17T14:32:23;1.55;;;1.27;;
68225;SDS011;55045;49.410;11.030;2023-03-17T14:35:32;2.38;;;1.27;;
68225;SDS011;55045;49.410;11.030;2023-03-17T14:38:38;3.25;;;1.02;;
68225;SDS011;55045;49.410;11.030;2023-03-17T14:41:59;1.73;;;1.10;;
68225;SDS011;55045;49.410;11.030;2023-03-17T14:45:03;2.58;;;1.00;;
68225;SDS011;55045;49.410;11.030;2023-03-17T14:48:10;1.52;;;1.20;;
68225;SDS011;55045;49.410;11.030;2023-03-17T14:51:22;1.17;;;0.90;;
68225;SDS011;55045;49.410;11.030;2023-03-17T14:54:29;1.73;;;1.10;;
68225;SDS011;55045;49.410;11.030;2023-03-17T14:57:35;1.33;;;1.05;;
68225;SDS011;55045;49.410;11.030;2023-03-17T15:00:42;2.60;;;1.00;;
68225;SDS011;55045;49.410;11.030;2023-03-17T15:06:59;2.38;;;1.20;;
68225;SDS011;55045;49.410;11.030;2023-03-17T15:10:03;1.20;;;1.08;;
68225;SDS011;55045;49.410;11.030;2023-03-17T15:13:08;2.53;;;1.17;;
68225;SDS011;55045;49.410;11.030;2023-03-17T15:16:15;1.73;;;1.10;;
68225;SDS011;55045;49.410;11.030;2023-03-17T15:19:23;1.85;;;1.10;;
68225;SDS011;55045;49.410;11.030;2023-03-17T15:22:31;1.52;;;1.10;;
68225;SDS011;55045;49.410;11.030;2023-03-17T15:25:43;3.30;;;1.10;;
68225;SDS011;55045;49.410;11.030;2023-03-17T15:28:49;1.35;;;1.25;;
68225;SDS011;55045;49.410;11.030;2023-03-17T15:31:52;4.72;;;1.25;;
68225;SDS011;55045;49.410;11.030;2023-03-17T15:35:01;1.30;;;1.10;;
68225;SDS011;55045;49.410;11.030;2023-03-17T15:38:08;4.72;;;1.30;;
68225;SDS011;55045;49.410;11.030;2023-03-17T15:41:13;4.07;;;1.15;;
68225;SDS011;55045;49.410;11.030;2023-03-17T15:44:16;1.58;;;1.30;;
68225;SDS011;55045;49.410;11.030;2023-03-17T15:47:20;1.75;;;0.90;;
68225;SDS011;55045;49.410;11.030;2023-03-17T15:50:26;3.22;;;1.20;;
68225;SDS011;55045;49.410;11.030;2023-03-17T15:53:33;3.30;;;1.15;;
68225;SDS011;55045;49.410;11.030;2023-03-17T15:56:36;6.13;;;1.17;;
68225;SDS011;55045;49.410;11.030;2023-03-17T15:59:40;1.85;;;1.10;;
68225;SDS011;55045;49.410;11.030;2023-03-17T16:02:43;4.10;;;1.42;;
68225;SDS011;55045;49.410;11.030;2023-03-17T16:05:48;3.35;;;1.20;;
68225;SDS011;55045;49.410;11.030;2023-03-17T16:08:54;2.38;;;1.38;;
68225;SDS011;55045;49.410;11.030;2023-03-17T16:11:57;5.03;;;1.60;;
68225;SDS011;55045;49.410;11.030;2023-03-17T16:15:00;2.25;;;1.50;;
68225;SDS011;55045;49.410;11.030;2023-03-17T16:18:17;3.50;;;1.52;;
68225;SDS011;55045;49.410;11.030;2023-03-17T16:21:24;2.45;;;1.02;;
68225;SDS011;55045;49.410;11.030;2023-03-17T16:24:29;1.95;;;1.40;;
68225;SDS011;55045;49.410;11.030;2023-03-17T16:27:32;2.35;;;1.50;;
68225;SDS011;55045;49.410;11.030;2023-03-17T16:34:14;9.32;;;2.25;;
68225;SDS011;55045;49.410;11.030;2023-03-17T16:37:19;1.90;;;1.70;;
68225;SDS011;55045;49.410;11.030;2023-03-17T16:40:24;4.40;;;2.58;;
68225;SDS011;55045;49.410;11.030;2023-03-17T16:43:29;2.85;;;1.50;;
68225;SDS011;55045;49.410;11.030;2023-03-17T16:46:36;3.07;;;2.23;;
68225;SDS011;55045;49.410;11.030;2023-03-17T16:49:40;14.63;;;3.13;;
68225;SDS011;55045;49.410;11.030;2023-03-17T16:52:44;2.58;;;1.90;;
68225;SDS011;55045;49.410;11.030;2023-03-17T16:55:47;2.65;;;1.48;;
68225;SDS011;55045;49.410;11.030;2023-03-17T16:58:52;3.20;;;1.52;;
68225;SDS011;55045;49.410;11.030;2023-03-17T17:01:55;4.25;;;1.80;;
68225;SDS011;55045;49.410;11.030;2023-03-17T17:05:00;2.85;;;1.40;;
68225;SDS011;55045;49.410;11.030;2023-03-17T17:08:05;2.75;;;1.90;;
68225;SDS011;55045;49.410;11.030;2023-03-17T17:11:09;6.03;;;1.88;;
68225;SDS011;55045;49.410;11.030;2023-03-17T17:14:14;3.85;;;2.03;;
68225;SDS011;55045;49.410;11.030;2023-03-17T17:17:17;5.55;;;2.33;;
68225;SDS011;55045;49.410;11.030;2023-03-17T17:20:23;6.38;;;1.85;;
68225;SDS011;55045;49.410;11.030;2023-03-17T17:23:29;2.75;;;1.60;;
68225;SDS011;55045;49.410;11.030;2023-03-17T17:26:32;9.80;;;3.33;;
68225;SDS011;55045;49.410;11.030;2023-03-17T17:29:36;4.25;;;1.70;;
68225;SDS011;55045;49.410;11.030;2023-03-17T17:32:39;3.13;;;1.80;;
68225;SDS011;55045;49.410;11.030;2023-03-17T17:35:44;3.35;;;1.55;;
68225;SDS011;55045;49.410;11.030;2023-03-17T17:38:48;5.80;;;2.00;;
68225;SDS011;55045;49.410;11.030;2023-03-17T17:41:52;4.40;;;1.80;;
68225;SDS011;55045;49.410;11.030;2023-03-17T17:44:56;2.75;;;1.58;;
68225;SDS011;55045;49.410;11.030;2023-03-17T17:47:59;6.38;;;1.95;;
68225;SDS011;55045;49.410;11.030;2023-03-17T17:51:04;5.97;;;2.42;;
68225;SDS011;55045;49.410;11.030;2023-03-17T17:54:07;4.75;;;1.88;;
68225;SDS011;55045;49.410;11.030;2023-03-17T17:57:11;5.00;;;2.35;;
68225;SDS011;55045;49.410;11.030;2023-03-17T18:00:15;5.63;;;2.13;;
68225;SDS011;55045;49.410;11.030;2023-03-17T18:03:19;4.68;;;2.47;;
68225;SDS011;55045;49.410;11.030;2023-03-17T18:06:27;5.13;;;2.38;;
68225;SDS011;55045;49.410;11.030;2023-03-17T18:09:30;7.20;;;3.45;;
68225;SDS011;55045;49.410;11.030;2023-03-17T18:12:36;6.03;;;2.22;;
68225;SDS011;55045;49.410;11.030;2023-03-17T18:15:39;6.00;;;2.83;;
68225;SDS011;55045;49.410;11.030;2023-03-17T18:18:43;3.65;;;2.40;;
68225;SDS011;55045;49.410;11.030;2023-03-17T18:21:49;4.50;;;2.40;;
68225;SDS011;55045;49.410;11.030;2023-03-17T18:24:52;4.60;;;2.30;;
68225;SDS011;55045;49.410;11.030;2023-03-17T18:27:56;4.82;;;2.50;;
68225;SDS011;55045;49.410;11.030;2023-03-17T18:31:02;5.95;;;2.50;;
68225;SDS011;55045;49.410;11.030;2023-03-17T18:34:11;4.68;;;2.72;;
68225;SDS011;55045;49.410;11.030;2023-03-17T18:37:21;5.30;;;3.10;;
68225;SDS011;55045;49.410;11.030;2023-03-17T18:40:24;13.55;;;3.10;;
68225;SDS011;55045;49.410;11.030;2023-03-17T18:43:28;5.28;;;2.95;;
68225;SDS011;55045;49.410;11.030;2023-03-17T18:46:31;6.72;;;2.75;;
68225;SDS011;55045;49.410;11.030;2023-03-17T18:49:34;6.72;;;3.08;;
68225;SDS011;55045;49.410;11.030;2023-03-17T18:52:40;7.28;;;2.50;;
68225;SDS011;55045;49.410;11.030;2023-03-17T18:55:44;3.30;;;2.35;;